Dover, Michigan
Current Conditions -  °F | °C
As of 7:53 AM on Thursday 30 Oct 2014 (Local Time) from KARB Reporting Station
Broken Clouds Broken Clouds  
Wind Chill: 30°   Ceiling: 3100
Heat Index: 30°   Visibility: 10mi
Dew Point: 27°   Wind: 3mph
Humidity: 88%   Direction: 240°WSW
Pressure: 30.12"   Gusts: NA
Location:  42.3528°N, 83.8974°W
Report Text: KARB 301153Z 24003KT 10SM BKN031 M01/M03 A3012 RMK AO2 SLP207 I1000 I6000 T10111028 10050 21022 50002
Loading
Personal Weather Stations






























Interactive Weather Map
Tropical Storm Tracking
New forecast layout! Learn more

10-Day Weather Forecast

Advertisements
Track Severe Weather on mobile